createdAt,value
2022-08-19T00:00:08.549Z,5.50
2022-08-19T00:02:36.708Z,5.57
2022-08-19T00:05:05.197Z,5.00
2022-08-19T00:07:33.530Z,5.10
2022-08-19T00:10:02.862Z,5.60
2022-08-19T00:12:30.721Z,5.57
2022-08-19T00:14:58.858Z,5.40
2022-08-19T00:17:28.031Z,5.43
2022-08-19T00:19:56.573Z,5.17
2022-08-19T00:22:25.304Z,5.77
2022-08-19T00:24:53.656Z,5.20
2022-08-19T00:27:26.996Z,4.87
2022-08-19T00:29:55.461Z,4.87
2022-08-19T00:32:23.936Z,5.40
2022-08-19T00:34:52.844Z,4.80
2022-08-19T00:37:20.608Z,5.40
2022-08-19T00:39:49.400Z,5.47
2022-08-19T00:42:17.937Z,5.60
2022-08-19T00:44:48.477Z,5.37
2022-08-19T00:47:16.545Z,5.27
2022-08-19T00:49:51.705Z,5.60
2022-08-19T00:52:22.942Z,5.50
2022-08-19T00:54:52.746Z,6.20
2022-08-19T00:57:22.462Z,5.90
2022-08-19T01:00:01.837Z,5.93
2022-08-19T01:02:31.819Z,5.30
2022-08-19T01:05:01.679Z,5.37
2022-08-19T01:07:34.106Z,5.60
2022-08-19T01:10:07.601Z,5.90
2022-08-19T01:12:36.461Z,5.70
2022-08-19T01:15:06.772Z,6.27
2022-08-19T01:17:35.462Z,5.87
2022-08-19T01:20:03.373Z,5.60
2022-08-19T01:22:40.357Z,5.37
2022-08-19T01:25:14.907Z,5.53
2022-08-19T01:28:07.953Z,6.07
2022-08-19T01:30:39.763Z,5.73
2022-08-19T01:33:15.289Z,6.83
2022-08-19T01:35:43.459Z,7.33
2022-08-19T01:38:21.772Z,7.33
2022-08-19T01:40:49.511Z,6.93
2022-08-19T01:43:17.406Z,6.50
2022-08-19T01:45:45.297Z,7.30
2022-08-19T01:48:13.076Z,7.90
2022-08-19T01:50:41.159Z,5.70
2022-08-19T01:53:10.439Z,6.97
2022-08-19T01:55:41.672Z,6.13
2022-08-19T01:58:14.482Z,6.50
2022-08-19T02:00:42.537Z,6.63
2022-08-19T02:03:12.425Z,5.87
2022-08-19T02:05:41.190Z,6.23
2022-08-19T02:08:09.836Z,6.60
2022-08-19T02:10:42.004Z,6.17
2022-08-19T02:13:10.168Z,7.47
2022-08-19T02:15:38.823Z,6.30
2022-08-19T02:18:07.523Z,7.20
2022-08-19T02:20:35.799Z,6.47
2022-08-19T02:23:03.573Z,6.50
2022-08-19T02:25:31.594Z,6.50
2022-08-19T02:28:01.968Z,6.63
2022-08-19T02:30:30.029Z,6.67
2022-08-19T02:32:58.035Z,6.37
2022-08-19T02:35:26.640Z,7.10
2022-08-19T02:38:11.897Z,6.57
2022-08-19T02:40:40.366Z,7.03
2022-08-19T02:43:10.697Z,6.97
2022-08-19T02:45:40.603Z,6.17
2022-08-19T02:48:14.919Z,7.43
2022-08-19T02:50:53.944Z,6.83
2022-08-19T02:53:23.332Z,7.23
2022-08-19T02:55:51.841Z,6.87
2022-08-19T02:58:22.357Z,6.60
2022-08-19T03:00:51.320Z,7.53
2022-08-19T03:03:19.913Z,7.60
2022-08-19T03:05:56.493Z,8.40
2022-08-19T03:08:26.873Z,8.10
2022-08-19T03:10:55.162Z,7.80
2022-08-19T03:13:25.428Z,6.73
2022-08-19T03:15:53.595Z,6.77
2022-08-19T03:18:23.447Z,7.23
2022-08-19T03:20:53.895Z,6.43
2022-08-19T03:23:23.918Z,6.07
2022-08-19T03:26:03.217Z,6.33
2022-08-19T03:28:42.967Z,6.60
2022-08-19T03:31:41.619Z,7.10
2022-08-19T03:34:08.125Z,6.87
2022-08-19T03:36:36.320Z,7.23
2022-08-19T03:39:04.138Z,7.60
2022-08-19T03:41:44.670Z,7.07
2022-08-19T03:44:18.164Z,7.07
2022-08-19T03:46:47.292Z,7.77
2022-08-19T03:49:15.409Z,6.97
2022-08-19T03:51:44.448Z,7.47
2022-08-19T03:54:14.683Z,7.83
2022-08-19T03:56:43.583Z,6.67
2022-08-19T03:59:15.073Z,7.03
2022-08-19T04:01:47.765Z,6.90
2022-08-19T04:04:16.339Z,7.03
2022-08-19T04:06:45.430Z,6.90
2022-08-19T04:09:13.595Z,6.60
2022-08-19T04:11:44.793Z,6.33
2022-08-19T04:14:13.885Z,6.37
2022-08-19T04:16:41.909Z,6.60
2022-08-19T04:19:11.636Z,7.57
2022-08-19T04:21:40.045Z,6.90
2022-08-19T04:24:08.743Z,7.33
2022-08-19T04:26:38.799Z,7.47
2022-08-19T04:29:12.378Z,7.00
2022-08-19T04:31:42.059Z,7.73
2022-08-19T04:34:14.746Z,7.80
2022-08-19T04:36:45.710Z,6.50
2022-08-19T04:39:15.390Z,8.17
2022-08-19T04:42:12.088Z,8.37
2022-08-19T04:44:46.088Z,7.93
2022-08-19T04:47:14.999Z,8.17
2022-08-19T04:49:47.363Z,8.07
2022-08-19T04:52:15.605Z,7.53
2022-08-19T04:54:43.615Z,7.63
2022-08-19T04:57:13.536Z,7.70
2022-08-19T04:59:41.906Z,7.73
2022-08-19T05:02:12.605Z,7.83
2022-08-19T05:04:41.379Z,6.83
2022-08-19T05:07:11.011Z,7.50
2022-08-19T05:09:56.745Z,8.13
2022-08-19T05:12:29.210Z,8.10
2022-08-19T05:14:58.234Z,8.27
2022-08-19T05:17:28.033Z,8.30
2022-08-19T05:20:15.607Z,8.30
2022-08-19T05:22:46.026Z,7.80
2022-08-19T05:25:15.257Z,8.05
2022-08-19T05:27:43.946Z,8.00
2022-08-19T05:30:12.288Z,8.43
2022-08-19T05:32:41.493Z,10.40
2022-08-19T05:35:10.947Z,13.77
2022-08-19T05:37:41.449Z,9.77
2022-08-19T05:40:12.574Z,9.50
2022-08-19T05:42:40.609Z,8.35
2022-08-19T05:45:09.248Z,9.07
2022-08-19T05:47:42.169Z,8.38
2022-08-19T05:50:11.590Z,8.50
2022-08-19T05:52:45.933Z,8.35
2022-08-19T05:55:21.615Z,7.72
2022-08-19T05:57:49.529Z,7.13
2022-08-19T06:00:20.433Z,7.70
2022-08-19T06:02:53.395Z,7.47
2022-08-19T06:05:21.763Z,8.00
2022-08-19T06:07:50.101Z,7.72
2022-08-19T06:10:19.613Z,8.60
2022-08-19T06:12:47.807Z,7.40
2022-08-19T06:15:17.058Z,7.47
2022-08-19T06:17:47.624Z,7.72
2022-08-19T06:20:39.913Z,8.15
2022-08-19T06:23:11.418Z,8.32
2022-08-19T06:25:46.316Z,8.88
2022-08-19T06:28:15.557Z,7.57
2022-08-19T06:30:43.641Z,8.07
2022-08-19T06:33:11.430Z,7.53
2022-08-19T06:35:41.320Z,6.90
2022-08-19T06:38:10.407Z,8.38
2022-08-19T06:40:39.473Z,7.60
2022-08-19T06:43:09.531Z,7.97
2022-08-19T06:45:39.719Z,6.55
2022-08-19T06:48:09.136Z,7.70
2022-08-19T06:50:39.856Z,7.20
2022-08-19T06:53:09.012Z,7.45
2022-08-19T06:55:36.823Z,7.13
2022-08-19T06:58:05.505Z,7.45
2022-08-19T07:00:35.160Z,7.10
2022-08-19T07:03:07.773Z,6.90
2022-08-19T07:05:40.209Z,7.68
2022-08-19T07:08:13.623Z,7.40
2022-08-19T07:10:44.727Z,8.15
2022-08-19T07:13:12.679Z,7.20
2022-08-19T07:15:43.320Z,8.00
2022-08-19T07:18:11.892Z,7.95
2022-08-19T07:20:42.078Z,8.43
2022-08-19T07:23:16.195Z,7.38
2022-08-19T07:25:44.918Z,7.82
2022-08-19T07:28:24.259Z,6.43
2022-08-19T07:30:54.581Z,7.70
2022-08-19T07:33:23.506Z,7.93
2022-08-19T07:35:51.919Z,6.65
2022-08-19T07:38:20.125Z,7.90
2022-08-19T07:40:48.602Z,6.95
2022-08-19T07:43:18.610Z,6.85
2022-08-19T07:45:49.493Z,7.47
2022-08-19T07:48:18.695Z,6.53
2022-08-19T07:50:47.096Z,6.68
2022-08-19T07:53:15.240Z,6.90
2022-08-19T07:55:43.987Z,6.40
2022-08-19T07:58:15.558Z,6.55
2022-08-19T08:00:43.410Z,6.75
2022-08-19T08:03:11.959Z,6.45
2022-08-19T08:05:59.455Z,6.85
2022-08-19T08:08:48.130Z,6.38
2022-08-19T08:11:20.028Z,6.93
2022-08-19T08:14:00.881Z,6.57
2022-08-19T08:16:31.077Z,6.22
2022-08-19T08:18:59.085Z,6.90
2022-08-19T08:21:28.595Z,6.45
2022-08-19T08:23:56.841Z,6.90
2022-08-19T08:26:24.875Z,6.93
2022-08-19T08:28:52.711Z,6.32
2022-08-19T08:31:21.426Z,5.95
2022-08-19T08:33:49.744Z,6.80
2022-08-19T08:36:17.551Z,6.05
2022-08-19T08:38:47.629Z,6.43
2022-08-19T08:41:21.559Z,6.53
2022-08-19T08:43:52.161Z,6.57
2022-08-19T08:46:30.745Z,7.15
2022-08-19T08:49:04.992Z,8.05
2022-08-19T08:51:36.393Z,7.05
2022-08-19T08:54:09.902Z,6.32
2022-08-19T08:56:40.019Z,6.38
2022-08-19T08:59:11.511Z,5.35
2022-08-19T09:01:40.366Z,5.43
2022-08-19T09:04:09.309Z,5.32
2022-08-19T09:06:41.238Z,4.57
2022-08-19T09:09:16.662Z,5.20
2022-08-19T09:11:51.825Z,5.05
2022-08-19T09:14:49.398Z,5.63
2022-08-19T09:17:14.532Z,4.95
2022-08-19T09:19:50.901Z,9.10
2022-08-19T09:22:26.058Z,15.45
2022-08-19T09:24:57.029Z,5.85
2022-08-19T09:27:35.573Z,6.93
2022-08-19T09:30:14.938Z,5.85
2022-08-19T09:32:44.527Z,5.32
2022-08-19T09:35:12.625Z,5.65
2022-08-19T09:37:40.909Z,4.90
2022-08-19T09:40:12.023Z,3.50
2022-08-19T09:42:49.959Z,4.55
2022-08-19T09:45:21.565Z,3.65
2022-08-19T09:47:49.987Z,3.35
2022-08-19T09:50:18.286Z,6.05
2022-08-19T09:52:56.922Z,4.00
2022-08-19T09:55:31.709Z,4.38
2022-08-19T09:58:02.582Z,3.67
2022-08-19T10:00:31.412Z,3.67
2022-08-19T10:02:59.369Z,3.55
2022-08-19T10:05:44.800Z,4.15
2022-08-19T10:08:16.646Z,4.03
2022-08-19T10:10:47.564Z,4.00
2022-08-19T10:13:16.853Z,3.70
2022-08-19T10:15:47.287Z,4.05
2022-08-19T10:18:16.788Z,4.30
2022-08-19T10:20:46.505Z,4.90
2022-08-19T10:23:20.239Z,4.18
2022-08-19T10:25:54.762Z,3.83
2022-08-19T10:28:24.222Z,4.15
2022-08-19T10:30:52.082Z,3.80
2022-08-19T10:33:42.567Z,3.90
2022-08-19T10:36:10.733Z,4.10
2022-08-19T10:38:39.295Z,4.72
2022-08-19T10:41:20.307Z,3.83
2022-08-19T10:43:49.164Z,5.80
2022-08-19T10:46:17.714Z,4.55
2022-08-19T10:48:50.499Z,4.75
2022-08-19T10:51:35.933Z,4.55
2022-08-19T10:54:15.786Z,4.70
2022-08-19T10:56:53.385Z,4.60
2022-08-19T10:59:22.302Z,4.25
2022-08-19T11:01:56.822Z,4.20
2022-08-19T11:04:29.537Z,4.43
2022-08-19T11:06:57.806Z,4.15
2022-08-19T11:09:33.649Z,5.18
2022-08-19T11:12:04.971Z,4.30
2022-08-19T11:14:34.263Z,4.13
2022-08-19T11:17:02.772Z,4.38
2022-08-19T11:19:30.949Z,4.32
2022-08-19T11:22:00.194Z,4.05
2022-08-19T11:24:29.087Z,4.80
2022-08-19T11:27:03.825Z,4.25
2022-08-19T11:29:35.470Z,4.20
2022-08-19T11:32:06.060Z,4.82
2022-08-19T11:34:33.960Z,4.63
2022-08-19T11:37:01.911Z,4.78
2022-08-19T11:39:31.359Z,4.60
2022-08-19T11:42:00.262Z,4.25
2022-08-19T11:44:31.428Z,4.40
2022-08-19T11:47:08.833Z,4.40
2022-08-19T11:49:37.659Z,4.55
2022-08-19T11:52:05.748Z,4.63
2022-08-19T11:54:33.993Z,4.95
2022-08-19T11:57:02.400Z,5.15
2022-08-19T11:59:31.846Z,4.90
2022-08-19T12:02:01.538Z,4.75
2022-08-19T12:04:29.356Z,4.93
2022-08-19T12:06:57.161Z,5.10
2022-08-19T12:09:25.057Z,5.15
2022-08-19T12:11:53.489Z,5.63
2022-08-19T12:14:21.310Z,5.35
2022-08-19T12:16:51.411Z,4.93
2022-08-19T12:19:22.621Z,4.50
2022-08-19T12:21:51.820Z,4.78
2022-08-19T12:24:24.338Z,5.88
2022-08-19T12:26:53.127Z,5.22
2022-08-19T12:29:23.982Z,5.22
2022-08-19T12:31:52.239Z,4.90
2022-08-19T12:34:21.996Z,5.00
2022-08-19T12:36:50.808Z,5.22
2022-08-19T12:39:18.732Z,5.70
2022-08-19T12:41:51.572Z,5.15
2022-08-19T12:44:29.385Z,4.75
2022-08-19T12:47:00.806Z,5.63
2022-08-19T12:49:54.234Z,5.72
2022-08-19T12:52:23.544Z,5.28
2022-08-19T12:54:53.923Z,5.10
2022-08-19T12:57:23.208Z,5.50
2022-08-19T12:59:55.778Z,5.70
2022-08-19T13:02:23.834Z,5.47
2022-08-19T13:04:54.227Z,4.80
2022-08-19T13:07:22.729Z,5.20
2022-08-19T13:09:53.401Z,4.95
2022-08-19T13:12:24.937Z,4.80
2022-08-19T13:14:53.175Z,5.00
2022-08-19T13:17:22.739Z,5.25
2022-08-19T13:19:51.288Z,5.07
2022-08-19T13:22:20.574Z,5.30
2022-08-19T13:24:49.425Z,5.07
2022-08-19T13:27:17.222Z,5.40
2022-08-19T13:30:02.824Z,5.35
2022-08-19T13:32:49.616Z,5.07
2022-08-19T13:35:19.587Z,5.50
2022-08-19T13:37:49.092Z,6.07
2022-08-19T13:40:19.587Z,5.30
2022-08-19T13:42:48.702Z,5.78
2022-08-19T13:45:17.571Z,5.28
2022-08-19T13:47:47.928Z,6.05
2022-08-19T13:50:16.862Z,5.65
2022-08-19T13:52:46.037Z,5.05
2022-08-19T13:55:16.747Z,5.50
2022-08-19T13:57:54.127Z,5.57
2022-08-19T14:00:23.075Z,5.15
2022-08-19T14:02:52.761Z,5.95
2022-08-19T14:05:21.172Z,5.22
2022-08-19T14:07:49.590Z,5.00
2022-08-19T14:10:19.933Z,5.43
2022-08-19T14:12:48.726Z,4.50
2022-08-19T14:15:17.337Z,5.65
2022-08-19T14:17:47.581Z,5.07
2022-08-19T14:20:17.760Z,5.20
2022-08-19T14:22:47.921Z,5.38
2022-08-19T14:25:17.449Z,5.25
2022-08-19T14:27:46.924Z,4.88
2022-08-19T14:30:17.597Z,5.30
2022-08-19T14:32:45.941Z,5.50
2022-08-19T14:35:15.307Z,5.13
2022-08-19T14:37:45.297Z,5.18
2022-08-19T14:40:14.440Z,4.63
2022-08-19T14:42:43.079Z,5.55
2022-08-19T14:45:13.166Z,5.20
2022-08-19T14:47:41.580Z,5.90
2022-08-19T14:50:18.306Z,5.32
2022-08-19T14:52:47.214Z,5.60
2022-08-19T14:55:15.432Z,5.07
2022-08-19T14:57:43.142Z,4.97
2022-08-19T15:00:14.504Z,5.07
2022-08-19T15:02:42.387Z,4.88
2022-08-19T15:05:11.282Z,5.85
2022-08-19T15:07:39.663Z,5.38
2022-08-19T15:10:08.937Z,5.28
2022-08-19T15:12:36.881Z,5.05
2022-08-19T15:15:05.665Z,5.70
2022-08-19T15:17:43.353Z,5.13
2022-08-19T15:20:15.445Z,5.68
2022-08-19T15:22:43.418Z,5.63
2022-08-19T15:25:12.507Z,5.10
2022-08-19T15:27:42.503Z,4.88
2022-08-19T15:30:11.038Z,4.80
2022-08-19T15:32:41.111Z,4.57
2022-08-19T15:35:09.531Z,5.32
2022-08-19T15:37:37.899Z,5.43
2022-08-19T15:40:06.766Z,5.15
2022-08-19T15:42:34.727Z,5.70
2022-08-19T15:45:03.263Z,5.05
2022-08-19T15:47:34.557Z,5.20
2022-08-19T15:50:10.846Z,4.60
2022-08-19T15:52:45.025Z,4.75
2022-08-19T15:55:19.278Z,4.72
2022-08-19T15:58:20.553Z,5.25
2022-08-19T16:01:13.719Z,5.05
2022-08-19T16:04:00.053Z,5.03
2022-08-19T16:06:29.866Z,4.97
2022-08-19T16:08:58.983Z,4.47
2022-08-19T16:11:29.627Z,5.05
2022-08-19T16:13:59.106Z,4.75
2022-08-19T16:16:31.011Z,4.13
2022-08-19T16:19:02.838Z,4.63
2022-08-19T16:21:33.658Z,4.50
2022-08-19T16:24:02.531Z,4.20
2022-08-19T16:26:31.601Z,4.90
2022-08-19T16:29:01.088Z,5.10
2022-08-19T16:31:29.490Z,4.85
2022-08-19T16:33:57.757Z,4.70
2022-08-19T16:36:25.613Z,5.63
2022-08-19T16:38:56.156Z,5.30
2022-08-19T16:41:24.696Z,4.78
2022-08-19T16:43:54.498Z,4.78
2022-08-19T16:46:23.457Z,4.60
2022-08-19T16:48:55.203Z,4.60
2022-08-19T16:51:24.092Z,4.35
2022-08-19T16:53:53.651Z,5.13
2022-08-19T16:56:25.714Z,4.32
2022-08-19T16:58:54.012Z,5.22
2022-08-19T17:01:24.100Z,4.88
2022-08-19T17:03:53.086Z,4.90
2022-08-19T17:06:22.292Z,4.70
2022-08-19T17:08:51.254Z,5.10
2022-08-19T17:11:19.936Z,4.93
2022-08-19T17:13:50.960Z,5.18
2022-08-19T17:16:19.941Z,5.40
2022-08-19T17:18:53.872Z,5.38
2022-08-19T17:21:22.949Z,5.20
2022-08-19T17:23:50.958Z,6.00
2022-08-19T17:26:19.942Z,5.93
2022-08-19T17:28:50.280Z,6.28
2022-08-19T17:31:23.220Z,6.03
2022-08-19T17:33:51.084Z,5.85
2022-08-19T17:36:23.525Z,5.95
2022-08-19T17:38:51.554Z,6.65
2022-08-19T17:41:19.899Z,6.68
2022-08-19T17:43:49.509Z,6.57
2022-08-19T17:46:19.409Z,5.55
2022-08-19T17:48:52.062Z,6.05
2022-08-19T17:51:23.155Z,5.90
2022-08-19T17:53:52.327Z,5.57
2022-08-19T17:56:20.454Z,5.90
2022-08-19T17:58:59.598Z,5.47
2022-08-19T18:01:32.013Z,5.80
2022-08-19T18:04:16.347Z,6.60
2022-08-19T18:06:53.119Z,7.38
2022-08-19T18:09:23.833Z,7.50
2022-08-19T18:11:53.387Z,8.20
2022-08-19T18:14:32.203Z,8.27
2022-08-19T18:17:02.092Z,9.38
2022-08-19T18:19:41.283Z,9.55
2022-08-19T18:22:10.579Z,8.50
2022-08-19T18:24:39.259Z,7.22
2022-08-19T18:27:07.345Z,6.40
2022-08-19T18:29:38.512Z,6.10
2022-08-19T18:32:12.362Z,6.25
2022-08-19T18:34:41.333Z,6.35
2022-08-19T18:37:09.399Z,6.10
2022-08-19T18:39:54.648Z,6.50
2022-08-19T18:42:40.481Z,6.53
2022-08-19T18:45:28.388Z,6.13
2022-08-19T18:48:27.464Z,5.93
2022-08-19T18:50:58.539Z,6.55
2022-08-19T18:53:26.683Z,5.70
2022-08-19T18:55:55.487Z,5.65
2022-08-19T18:58:26.415Z,5.97
2022-08-19T19:00:57.614Z,6.38
2022-08-19T19:03:26.860Z,5.90
2022-08-19T19:05:55.279Z,6.85
2022-08-19T19:08:26.760Z,6.78
2022-08-19T19:10:55.686Z,6.70
2022-08-19T19:13:23.732Z,7.25
2022-08-19T19:15:52.056Z,6.38
2022-08-19T19:18:27.751Z,6.22
2022-08-19T19:20:57.290Z,5.75
2022-08-19T19:23:26.313Z,5.65
2022-08-19T19:25:55.747Z,5.53
2022-08-19T19:28:29.843Z,6.10
2022-08-19T19:30:59.195Z,5.15
2022-08-19T19:33:29.363Z,6.22
2022-08-19T19:35:57.086Z,6.75
2022-08-19T19:38:26.365Z,6.03
2022-08-19T19:40:54.568Z,5.63
2022-08-19T19:43:22.571Z,6.13
2022-08-19T19:45:50.498Z,6.30
2022-08-19T19:48:18.561Z,6.13
2022-08-19T19:50:54.159Z,6.13
2022-08-19T19:53:27.637Z,6.07
2022-08-19T19:55:58.866Z,5.75
2022-08-19T19:58:28.752Z,6.25
2022-08-19T20:00:58.098Z,5.15
2022-08-19T20:03:26.092Z,6.20
2022-08-19T20:05:55.418Z,5.63
2022-08-19T20:08:40.558Z,5.55
2022-08-19T20:11:08.684Z,5.90
2022-08-19T20:13:40.734Z,5.38
2022-08-19T20:16:09.445Z,5.43
2022-08-19T20:18:38.906Z,5.97
2022-08-19T20:21:08.530Z,6.28
2022-08-19T20:23:36.772Z,6.05
2022-08-19T20:26:06.622Z,6.05
2022-08-19T20:29:32.746Z,5.45
2022-08-19T20:31:59.376Z,5.85
2022-08-19T20:34:27.941Z,5.80
2022-08-19T20:36:57.173Z,5.75
2022-08-19T20:39:26.444Z,5.85
2022-08-19T20:41:56.577Z,5.50
2022-08-19T20:44:24.992Z,6.05
2022-08-19T20:46:54.242Z,5.60
2022-08-19T20:49:27.102Z,5.85
2022-08-19T20:51:55.697Z,5.75
2022-08-19T20:54:25.195Z,5.43
2022-08-19T20:56:53.648Z,5.95
2022-08-19T20:59:23.350Z,5.43
2022-08-19T21:01:52.588Z,6.18
2022-08-19T21:04:22.358Z,6.38
2022-08-19T21:06:50.531Z,5.95
2022-08-19T21:09:18.806Z,6.30
2022-08-19T21:11:49.325Z,6.28
2022-08-19T21:17:14.743Z,6.22
2022-08-19T21:19:42.508Z,6.25
2022-08-19T21:22:10.781Z,6.30
2022-08-19T21:24:38.968Z,7.28
2022-08-19T21:27:08.363Z,6.65
2022-08-19T21:29:40.208Z,6.43
2022-08-19T21:32:08.212Z,6.78
2022-08-19T21:34:37.485Z,6.82
2022-08-19T21:37:05.716Z,7.35
2022-08-19T21:39:39.927Z,6.97
2022-08-19T21:42:09.579Z,7.07
2022-08-19T21:44:37.628Z,7.25
2022-08-19T21:47:05.934Z,6.13
2022-08-19T21:49:37.146Z,7.10
2022-08-19T21:52:05.751Z,6.60
2022-08-19T21:54:38.238Z,6.78
2022-08-19T21:57:10.094Z,6.38
2022-08-19T21:59:43.840Z,6.15
2022-08-19T22:02:20.407Z,6.75
2022-08-19T22:04:49.646Z,6.88
2022-08-19T22:07:17.887Z,6.50
2022-08-19T22:09:46.583Z,7.03
2022-08-19T22:12:23.536Z,6.30
2022-08-19T22:14:53.218Z,6.65
2022-08-19T22:17:22.499Z,6.72
2022-08-19T22:19:57.876Z,6.15
2022-08-19T22:22:26.704Z,6.05
2022-08-19T22:24:55.711Z,5.70
2022-08-19T22:27:23.694Z,6.70
2022-08-19T22:29:53.569Z,6.63
2022-08-19T22:32:28.129Z,6.10
2022-08-19T22:37:54.141Z,6.70
2022-08-19T22:40:23.508Z,6.70
2022-08-19T22:43:00.532Z,6.55
2022-08-19T22:45:29.975Z,6.03
2022-08-19T22:47:58.257Z,6.35
2022-08-19T22:50:26.352Z,6.18
2022-08-19T22:52:55.564Z,6.85
2022-08-19T22:55:23.671Z,5.82
2022-08-19T22:57:51.928Z,6.95
2022-08-19T23:00:19.915Z,6.30
2022-08-19T23:02:52.337Z,6.68
2022-08-19T23:05:22.351Z,6.53
2022-08-19T23:07:52.263Z,6.72
2022-08-19T23:10:26.632Z,7.43
2022-08-19T23:13:02.945Z,5.97
2022-08-19T23:15:31.909Z,6.45
2022-08-19T23:18:02.648Z,6.55
2022-08-19T23:20:34.045Z,6.85
2022-08-19T23:23:03.137Z,6.47
2022-08-19T23:25:32.230Z,6.22
2022-08-19T23:28:18.265Z,6.47
2022-08-19T23:30:47.693Z,6.07
2022-08-19T23:33:21.854Z,6.38
2022-08-19T23:35:51.019Z,5.90
2022-08-19T23:38:22.847Z,5.97
2022-08-19T23:40:51.511Z,6.97
2022-08-19T23:43:24.478Z,5.95
2022-08-19T23:45:53.898Z,6.32
2022-08-19T23:48:28.822Z,6.63
2022-08-19T23:50:57.570Z,6.68
2022-08-19T23:53:26.492Z,6.97
2022-08-19T23:55:54.767Z,6.28
2022-08-19T23:58:24.107Z,6.72
